Time;durP1;ratioP1;P1;durP2;ratioP2;P2;SDS_P1;SDS_P2;PMS_P1;PMS_P2;Temp;Humidity;BMP_temperature;BMP_pressure;BME280_temperature;BME280_humidity;BME280_pressure;Samples;Min_cycle;Max_cycle;Signal;HPM_P1;HPM_P2
2024/01/27 00:00:09;;;;;;;6.40;2.90;;;2.60;30.20;;;;;;4937094;29;20188;-69
2024/01/27 00:02:35;;;;;;;5.55;2.45;;;2.50;30.90;;;;;;4937151;29;20252;-70
2024/01/27 00:05:02;;;;;;;6.32;2.05;;;2.50;32.50;;;;;;4936604;29;20228;-70
2024/01/27 00:07:28;;;;;;;4.57;2.30;;;2.40;32.20;;;;;;4937024;29;20193;-70
2024/01/27 00:09:54;;;;;;;5.87;2.50;;;2.40;32.00;;;;;;4936896;29;20176;-70
2024/01/27 00:12:20;;;;;;;8.60;2.70;;;2.40;30.80;;;;;;4951563;28;20507;-71
2024/01/27 00:14:45;;;;;;;4.60;2.13;;;2.30;31.40;;;;;;4936464;29;20295;-71
2024/01/27 00:17:11;;;;;;;2.57;1.83;;;2.30;32.10;;;;;;4936821;29;20230;-71
2024/01/27 00:19:36;;;;;;;3.80;2.40;;;2.20;31.20;;;;;;4936639;29;20188;-71
2024/01/27 00:22:06;;;;;;;3.20;2.50;;;2.10;32.50;;;;;;4951737;28;20269;-71
2024/01/27 00:24:32;;;;;;;5.60;2.50;;;2.00;30.90;;;;;;4950962;29;20184;-70
2024/01/27 00:26:57;;;;;;;5.37;2.40;;;2.00;32.70;;;;;;4936330;29;20211;-70
2024/01/27 00:29:23;;;;;;;4.57;2.50;;;1.90;32.70;;;;;;4936842;29;20270;-70
2024/01/27 00:31:50;;;;;;;4.17;2.80;;;1.90;33.40;;;;;;4936352;29;20183;-71
2024/01/27 00:34:16;;;;;;;6.22;2.42;;;1.80;31.90;;;;;;4951083;29;20214;-71
2024/01/27 00:36:48;;;;;;;4.55;2.65;;;1.80;33.70;;;;;;4950682;28;20237;-71
2024/01/27 00:39:17;;;;;;;5.65;3.45;;;1.80;32.90;;;;;;4936472;29;20182;-71
2024/01/27 00:41:43;;;;;;;10.65;4.80;;;1.70;33.50;;;;;;4936302;29;20190;-71
2024/01/27 00:44:09;;;;;;;7.27;3.67;;;1.70;33.70;;;;;;4936343;29;20578;-71
2024/01/27 00:46:39;;;;;;;4.30;3.10;;;1.60;34.00;;;;;;4935806;29;20203;-69
2024/01/27 00:49:05;;;;;;;5.70;3.30;;;1.50;34.90;;;;;;4936220;29;20201;-71
2024/01/27 00:51:30;;;;;;;7.20;3.30;;;1.40;35.10;;;;;;4936324;29;20206;-70
2024/01/27 00:53:56;;;;;;;6.70;3.07;;;1.40;35.20;;;;;;4936275;29;20290;-71
2024/01/27 00:56:21;;;;;;;4.90;3.60;;;1.50;35.80;;;;;;4935894;29;20761;-70
2024/01/27 00:58:47;;;;;;;3.60;2.90;;;1.40;36.80;;;;;;4950527;28;20190;-71
2024/01/27 01:01:12;;;;;;;5.00;2.80;;;1.40;35.50;;;;;;4935995;29;20258;-71
2024/01/27 01:03:38;;;;;;;5.53;3.30;;;1.30;35.00;;;;;;4935916;29;20183;-71
2024/01/27 01:06:04;;;;;;;4.70;2.80;;;1.30;35.00;;;;;;4970581;23;20237;-70
2024/01/27 01:08:29;;;;;;;6.47;2.90;;;1.30;36.10;;;;;;4974408;28;20178;-70
2024/01/27 01:10:55;;;;;;;5.37;4.03;;;1.20;35.90;;;;;;4974333;28;20178;-70
2024/01/27 01:13:20;;;;;;;4.83;2.53;;;1.20;37.20;;;;;;4973042;28;20252;-69
2024/01/27 01:15:46;;;;;;;4.80;2.93;;;1.20;37.00;;;;;;4973993;28;20205;-70
2024/01/27 01:18:12;;;;;;;7.80;3.37;;;1.10;37.60;;;;;;4974139;28;20644;-70
2024/01/27 01:20:37;;;;;;;7.13;4.00;;;1.10;37.40;;;;;;4972914;28;20454;-70
2024/01/27 01:23:03;;;;;;;4.50;2.70;;;1.10;37.80;;;;;;4973924;28;20694;-70
2024/01/27 01:25:28;;;;;;;7.53;3.47;;;1.10;38.00;;;;;;4974280;28;20193;-70
2024/01/27 01:27:54;;;;;;;6.20;3.27;;;1.00;37.30;;;;;;4973982;28;20181;-71
2024/01/27 01:30:20;;;;;;;4.90;2.60;;;1.00;37.40;;;;;;4974034;28;20177;-70
2024/01/27 01:32:45;;;;;;;5.45;3.53;;;0.90;38.10;;;;;;4974178;28;20191;-72
2024/01/27 01:35:11;;;;;;;5.57;2.70;;;0.90;37.80;;;;;;4973675;28;20294;-69
2024/01/27 01:37:36;;;;;;;4.70;3.50;;;0.90;37.70;;;;;;4973971;28;20174;-70
2024/01/27 01:40:02;;;;;;;4.97;3.13;;;0.80;37.50;;;;;;4973691;28;20206;-70
2024/01/27 01:42:29;;;;;;;3.63;3.15;;;0.80;38.00;;;;;;4989876;28;20236;-70
2024/01/27 01:44:55;;;;;;;4.75;2.55;;;0.80;39.10;;;;;;4991675;28;20184;-70
2024/01/27 01:47:22;;;;;;;2.97;2.00;;;0.80;38.80;;;;;;4990660;28;20662;-68
2024/01/27 01:49:48;;;;;;;7.38;3.15;;;0.80;38.50;;;;;;4983787;28;20851;-69
2024/01/27 01:52:19;;;;;;;4.80;2.70;;;0.70;39.20;;;;;;4974544;28;20201;-69
2024/01/27 01:54:49;;;;;;;4.95;3.05;;;0.70;38.90;;;;;;4973584;28;20240;-69
2024/01/27 01:57:15;;;;;;;4.85;2.58;;;0.70;38.90;;;;;;4972579;28;20205;-70
2024/01/27 01:59:41;;;;;;;4.00;2.77;;;0.70;38.90;;;;;;4973736;28;20181;-70
2024/01/27 02:02:07;;;;;;;8.10;2.97;;;0.60;38.90;;;;;;4973724;28;20423;-69
2024/01/27 02:04:43;;;;;;;5.57;3.00;;;0.60;39.00;;;;;;4973361;28;20435;-69
2024/01/27 02:07:08;;;;;;;4.95;2.67;;;0.60;38.30;;;;;;4973569;28;20221;-70
2024/01/27 02:09:34;;;;;;;3.87;2.23;;;0.60;38.80;;;;;;4973544;28;20177;-71
2024/01/27 02:12:00;;;;;;;4.93;2.20;;;0.50;38.80;;;;;;4973626;28;20420;-72
2024/01/27 02:14:27;;;;;;;5.13;2.63;;;0.50;39.60;;;;;;4973515;28;20452;-70
2024/01/27 02:16:53;;;;;;;6.70;2.80;;;0.50;40.10;;;;;;4973956;28;20398;-70
2024/01/27 02:19:18;;;;;;;4.95;3.20;;;0.60;40.00;;;;;;4973807;28;20389;-71
2024/01/27 02:21:44;;;;;;;3.40;2.47;;;0.60;39.50;;;;;;4974214;28;20177;-71
2024/01/27 02:24:10;;;;;;;7.80;3.10;;;0.60;39.80;;;;;;4973730;28;20653;-70
2024/01/27 02:26:36;;;;;;;3.63;2.73;;;0.60;39.60;;;;;;4973567;28;20673;-70
2024/01/27 02:29:01;;;;;;;5.03;2.53;;;0.60;39.90;;;;;;4973361;28;20423;-70
2024/01/27 02:31:27;;;;;;;3.97;2.87;;;0.50;39.40;;;;;;4972380;28;20849;-70
2024/01/27 02:33:52;;;;;;;7.03;3.40;;;0.40;38.90;;;;;;4973825;28;20688;-70
2024/01/27 02:36:18;;;;;;;6.30;3.37;;;0.40;39.20;;;;;;4973570;28;20189;-69
2024/01/27 02:38:43;;;;;;;7.40;3.10;;;0.30;38.30;;;;;;4973085;28;20180;-68
2024/01/27 02:41:12;;;;;;;3.17;2.17;;;0.30;39.20;;;;;;4973102;28;20261;-70
2024/01/27 02:43:38;;;;;;;7.05;3.25;;;0.30;39.00;;;;;;4973135;28;20181;-69
2024/01/27 02:46:12;;;;;;;4.10;3.03;;;0.20;38.80;;;;;;4972737;28;20284;-69
2024/01/27 02:48:42;;;;;;;9.98;3.30;;;0.20;39.20;;;;;;4972769;28;20184;-69
2024/01/27 02:51:08;;;;;;;6.88;2.55;;;0.20;39.20;;;;;;4973091;28;20240;-69
2024/01/27 02:53:33;;;;;;;3.55;2.65;;;0.20;39.90;;;;;;4976702;28;20261;-69
2024/01/27 02:55:59;;;;;;;4.03;2.63;;;0.10;38.80;;;;;;4976393;28;20197;-70
2024/01/27 02:58:24;;;;;;;3.83;3.17;;;0.10;39.50;;;;;;4976749;28;20173;-69
2024/01/27 03:00:50;;;;;;;4.83;2.80;;;0.10;39.50;;;;;;4976822;28;20184;-69
2024/01/27 03:03:16;;;;;;;4.70;2.90;;;0.10;39.50;;;;;;4976594;28;20180;-68
2024/01/27 03:05:41;;;;;;;3.83;3.03;;;0.10;39.10;;;;;;4976244;28;20586;-68
2024/01/27 03:08:07;;;;;;;3.80;2.63;;;0.00;39.70;;;;;;4976704;28;20657;-68
2024/01/27 03:10:32;;;;;;;3.53;2.13;;;0.00;39.70;;;;;;4976696;28;20267;-68
2024/01/27 03:12:58;;;;;;;4.23;2.80;;;0.00;40.80;;;;;;4976468;28;20267;-69
2024/01/27 03:15:23;;;;;;;3.27;2.40;;;0.00;41.80;;;;;;4975918;28;20185;-68
2024/01/27 03:17:49;;;;;;;6.93;3.13;;;0.00;41.40;;;;;;4976424;28;20572;-69
2024/01/27 03:20:14;;;;;;;3.70;2.97;;;0.00;41.10;;;;;;4976147;28;20192;-68
2024/01/27 03:22:41;;;;;;;5.73;2.97;;;0.00;41.00;;;;;;4975058;28;20181;-68
2024/01/27 03:25:08;;;;;;;12.00;4.38;;;-0.10;40.50;;;;;;4975986;28;20177;-68
2024/01/27 03:27:34;;;;;;;4.05;2.45;;;-0.10;40.70;;;;;;4976067;28;20173;-68
2024/01/27 03:30:03;;;;;;;6.97;2.72;;;-0.10;40.50;;;;;;4974618;28;20276;-68
2024/01/27 03:32:31;;;;;;;8.88;3.20;;;-0.10;40.80;;;;;;4976006;28;20696;-68
2024/01/27 03:34:58;;;;;;;3.28;2.45;;;-0.10;41.10;;;;;;4975614;28;20209;-68
2024/01/27 03:37:24;;;;;;;4.15;2.92;;;-0.10;41.10;;;;;;4975910;28;20199;-68
2024/01/27 03:39:49;;;;;;;6.03;2.40;;;-0.10;41.50;;;;;;4975899;28;20180;-69
2024/01/27 03:42:15;;;;;;;4.43;2.77;;;-0.10;41.80;;;;;;4975916;28;20178;-68
2024/01/27 03:44:40;;;;;;;2.80;2.30;;;-0.10;41.90;;;;;;4975692;28;20181;-69
2024/01/27 03:47:06;;;;;;;7.63;2.73;;;0.00;42.30;;;;;;4975637;28;20208;-69
2024/01/27 03:49:31;;;;;;;10.03;3.67;;;-0.10;42.30;;;;;;4975876;28;20182;-68
2024/01/27 03:51:57;;;;;;;4.87;3.30;;;-0.10;41.60;;;;;;4975722;28;20181;-69
2024/01/27 03:54:22;;;;;;;4.23;1.97;;;-0.10;42.30;;;;;;4975680;28;20220;-68
2024/01/27 03:56:48;;;;;;;3.03;2.10;;;-0.10;42.50;;;;;;4975448;28;20193;-68
2024/01/27 03:59:13;;;;;;;4.00;2.70;;;0.00;43.90;;;;;;4975921;28;20184;-69
2024/01/27 04:01:39;;;;;;;5.20;2.90;;;0.10;44.10;;;;;;4975725;28;20252;-69
2024/01/27 04:04:04;;;;;;;4.80;3.10;;;0.20;44.20;;;;;;4975311;28;20185;-69
2024/01/27 04:06:36;;;;;;;3.40;2.23;;;0.30;44.20;;;;;;4974893;28;20751;-69
2024/01/27 04:09:03;;;;;;;5.22;2.85;;;0.40;44.40;;;;;;4975268;28;20184;-69
2024/01/27 04:11:28;;;;;;;4.18;3.25;;;0.40;44.30;;;;;;4975367;28;20181;-69
2024/01/27 04:13:53;;;;;;;6.10;2.90;;;0.50;43.70;;;;;;4975209;28;20739;-69
2024/01/27 04:16:19;;;;;;;4.43;2.30;;;0.50;43.70;;;;;;4974965;28;20248;-69
2024/01/27 04:18:45;;;;;;;4.70;2.80;;;0.60;44.50;;;;;;4975131;28;20233;-69
2024/01/27 04:21:10;;;;;;;3.43;2.33;;;0.60;43.60;;;;;;4975320;28;20209;-69
2024/01/27 04:23:35;;;;;;;4.93;2.67;;;0.70;44.00;;;;;;4975093;28;20186;-69
2024/01/27 04:26:02;;;;;;;3.43;2.20;;;0.70;42.20;;;;;;4974884;28;20197;-70
2024/01/27 04:28:30;;;;;;;4.40;2.58;;;0.80;41.40;;;;;;4975024;28;20177;-69
2024/01/27 04:30:55;;;;;;;3.97;2.42;;;0.80;40.40;;;;;;4974160;28;20517;-69
2024/01/27 04:33:21;;;;;;;6.03;2.80;;;0.70;39.70;;;;;;4975044;28;20244;-69
2024/01/27 04:35:46;;;;;;;4.27;2.63;;;0.70;39.60;;;;;;4975166;28;20197;-69
2024/01/27 04:38:12;;;;;;;4.13;3.00;;;0.70;39.30;;;;;;4974974;28;20181;-69
2024/01/27 04:40:37;;;;;;;8.60;3.20;;;0.60;38.60;;;;;;4975177;28;20173;-69
2024/01/27 04:43:03;;;;;;;5.13;3.10;;;0.60;38.70;;;;;;4974715;28;20205;-69
2024/01/27 04:45:28;;;;;;;4.87;2.80;;;0.60;38.20;;;;;;4974566;28;20224;-68
2024/01/27 04:47:54;;;;;;;5.07;2.90;;;0.50;38.00;;;;;;4973495;28;20641;-69
2024/01/27 04:50:20;;;;;;;7.33;2.83;;;0.50;38.30;;;;;;4973298;28;20217;-69
2024/01/27 04:52:46;;;;;;;4.38;2.25;;;0.50;37.70;;;;;;4974677;28;20707;-70
2024/01/27 04:55:12;;;;;;;5.50;3.07;;;0.40;36.80;;;;;;4974537;28;20213;-69
2024/01/27 04:57:38;;;;;;;6.87;2.93;;;0.40;36.90;;;;;;4974608;28;20268;-69
2024/01/27 05:00:11;;;;;;;6.15;3.30;;;0.30;37.90;;;;;;4974293;28;20441;-69
2024/01/27 05:02:41;;;;;;;4.63;2.70;;;0.30;37.10;;;;;;4974346;28;20173;-69
2024/01/27 05:05:07;;;;;;;7.47;2.50;;;0.20;37.90;;;;;;4974267;28;20718;-70
2024/01/27 05:07:33;;;;;;;5.28;3.40;;;0.20;37.90;;;;;;4974362;28;20197;-70
2024/01/27 05:09:58;;;;;;;6.43;3.00;;;0.20;37.90;;;;;;4974307;28;20184;-69
2024/01/27 05:12:24;;;;;;;3.40;2.13;;;0.10;38.00;;;;;;4974350;28;20193;-69
2024/01/27 05:14:49;;;;;;;8.50;3.30;;;0.00;38.20;;;;;;4973275;28;20216;-68
2024/01/27 05:17:15;;;;;;;7.73;3.37;;;0.00;37.80;;;;;;4973939;28;20208;-71
2024/01/27 05:19:40;;;;;;;5.10;3.10;;;0.00;38.70;;;;;;4974090;28;20667;-69
2024/01/27 05:22:06;;;;;;;7.97;3.17;;;0.00;39.00;;;;;;4974026;28;20184;-69
2024/01/27 05:24:31;;;;;;;4.60;3.30;;;0.00;39.30;;;;;;4973941;28;20181;-70
2024/01/27 05:26:57;;;;;;;4.53;3.27;;;-0.10;38.60;;;;;;4973996;28;20204;-69
2024/01/27 05:29:22;;;;;;;3.50;2.80;;;-0.10;39.00;;;;;;4973639;28;20649;-69
2024/01/27 05:31:48;;;;;;;7.80;2.93;;;-0.20;38.80;;;;;;4973739;28;20181;-69
2024/01/27 05:34:14;;;;;;;5.70;2.80;;;-0.20;38.70;;;;;;4973726;28;20263;-69
2024/01/27 05:36:40;;;;;;;7.82;2.97;;;-0.30;37.90;;;;;;4974143;28;20691;-69
2024/01/27 05:39:06;;;;;;;6.77;2.80;;;-0.30;38.20;;;;;;4972928;28;20209;-69
2024/01/27 05:41:32;;;;;;;4.30;2.25;;;-0.40;38.40;;;;;;4974321;28;20604;-69
2024/01/27 05:43:58;;;;;;;4.03;2.78;;;-0.50;38.10;;;;;;4974138;28;20268;-70
2024/01/27 05:46:25;;;;;;;3.63;2.90;;;-0.50;38.40;;;;;;4973475;28;20305;-70
2024/01/27 05:48:53;;;;;;;4.18;3.03;;;-0.60;38.80;;;;;;4973992;28;20181;-72
2024/01/27 05:51:23;;;;;;;5.78;2.83;;;-0.60;38.60;;;;;;4973837;28;20199;-70
2024/01/27 05:53:49;;;;;;;4.95;2.97;;;-0.70;38.00;;;;;;4973767;28;20556;-69
2024/01/27 05:56:14;;;;;;;6.53;2.97;;;-0.70;39.20;;;;;;4973344;28;20203;-68
2024/01/27 05:58:40;;;;;;;6.90;3.50;;;-0.70;39.90;;;;;;4973493;28;20423;-70
2024/01/27 06:01:05;;;;;;;4.43;3.17;;;-0.70;40.30;;;;;;4973722;28;20181;-70
2024/01/27 06:03:32;;;;;;;7.43;3.97;;;-0.70;39.00;;;;;;4988825;28;20180;-70
2024/01/27 06:05:57;;;;;;;3.10;2.22;;;-0.70;39.90;;;;;;4990749;28;20223;-69
2024/01/27 06:08:23;;;;;;;13.67;4.10;;;-0.80;39.90;;;;;;4991918;28;20208;-69
2024/01/27 06:10:48;;;;;;;11.53;4.03;;;-0.80;39.20;;;;;;4987702;28;20189;-69
2024/01/27 06:13:14;;;;;;;5.30;3.13;;;-0.80;39.90;;;;;;4973463;28;20192;-70
2024/01/27 06:15:39;;;;;;;6.50;3.73;;;-0.80;39.60;;;;;;4973834;28;20690;-69
2024/01/27 06:18:05;;;;;;;4.57;3.10;;;-0.90;39.50;;;;;;4973286;28;20645;-68
2024/01/27 06:20:31;;;;;;;5.43;3.15;;;-0.90;40.00;;;;;;4973143;28;20665;-69
2024/01/27 06:22:57;;;;;;;5.07;3.47;;;-0.90;39.80;;;;;;4973241;28;20248;-69
2024/01/27 06:25:23;;;;;;;5.25;3.70;;;-1.00;39.60;;;;;;4972571;28;20243;-69
2024/01/27 06:27:48;;;;;;;7.13;3.70;;;-1.00;39.90;;;;;;4972840;28;20187;-67
2024/01/27 06:30:15;;;;;;;6.10;3.10;;;-1.00;39.80;;;;;;4972913;28;20274;-67
2024/01/27 06:32:41;;;;;;;7.00;4.32;;;-1.00;40.10;;;;;;4973270;28;20551;-67
2024/01/27 06:35:07;;;;;;;5.33;3.67;;;-1.00;40.00;;;;;;4972520;28;20227;-66
2024/01/27 06:37:33;;;;;;;4.53;3.00;;;-1.00;39.30;;;;;;4973108;28;20433;-66
2024/01/27 06:39:58;;;;;;;6.93;3.90;;;-1.10;39.20;;;;;;4972835;28;20173;-66
2024/01/27 06:42:24;;;;;;;4.43;3.73;;;-1.10;39.60;;;;;;4973499;28;20182;-66
2024/01/27 06:44:49;;;;;;;6.30;3.40;;;-1.10;39.80;;;;;;4973971;28;20184;-67
2024/01/27 06:47:15;;;;;;;6.57;3.70;;;-1.10;40.40;;;;;;4971849;28;20264;-67
2024/01/27 06:49:40;;;;;;;7.93;5.93;;;-1.10;40.30;;;;;;4971566;28;20236;-67
2024/01/27 06:52:06;;;;;;;6.87;4.90;;;-1.10;40.20;;;;;;4973243;28;20180;-67
2024/01/27 06:54:32;;;;;;;6.17;3.57;;;-1.10;41.00;;;;;;4972545;28;20586;-67
2024/01/27 06:56:59;;;;;;;4.60;3.43;;;-1.10;40.50;;;;;;4972422;28;20646;-67
2024/01/27 06:59:25;;;;;;;7.35;4.05;;;-1.10;40.30;;;;;;4972432;28;20169;-66
2024/01/27 07:01:51;;;;;;;5.93;4.17;;;-1.10;40.60;;;;;;4972600;28;20181;-66
2024/01/27 07:04:17;;;;;;;4.20;3.03;;;-1.10;40.10;;;;;;4972583;28;20180;-67
2024/01/27 07:06:45;;;;;;;9.43;4.07;;;-1.20;39.90;;;;;;5001613;23;20506;-67
2024/01/27 07:09:11;;;;;;;26.63;4.70;;;-1.20;40.50;;;;;;4992400;28;20605;-67
2024/01/27 07:11:37;;;;;;;8.93;4.57;;;-1.20;39.80;;;;;;4992102;28;20204;-67
2024/01/27 07:14:04;;;;;;;7.78;3.95;;;-1.20;39.90;;;;;;4992238;28;20551;-67
2024/01/27 07:16:30;;;;;;;5.75;5.15;;;-1.20;40.00;;;;;;4991763;28;20192;-67
2024/01/27 07:18:55;;;;;;;5.27;3.90;;;-1.20;40.90;;;;;;4990641;28;20262;-68
2024/01/27 07:21:21;;;;;;;9.57;4.63;;;-1.20;41.00;;;;;;4978734;28;20190;-69
2024/01/27 07:23:46;;;;;;;11.63;5.10;;;-1.20;40.30;;;;;;4973448;28;20176;-68
2024/01/27 07:26:13;;;;;;;7.70;4.63;;;-1.20;41.10;;;;;;4972545;28;20227;-68
2024/01/27 07:28:38;;;;;;;5.90;4.55;;;-1.20;40.70;;;;;;4972745;28;20266;-69
2024/01/27 07:31:05;;;;;;;6.43;5.23;;;-1.20;41.40;;;;;;4972744;28;20221;-67
2024/01/27 07:33:31;;;;;;;9.80;4.68;;;-1.20;41.20;;;;;;4972795;28;20638;-68
2024/01/27 07:35:57;;;;;;;10.70;5.60;;;-1.20;42.00;;;;;;4972249;28;20204;-67
2024/01/27 07:38:22;;;;;;;8.02;4.70;;;-1.10;42.20;;;;;;4974769;28;20419;-68
2024/01/27 07:40:48;;;;;;;16.30;5.57;;;-1.10;42.30;;;;;;5009881;28;20180;-68
2024/01/27 07:43:13;;;;;;;7.40;4.77;;;-1.00;43.20;;;;;;4995374;28;20187;-68
2024/01/27 07:45:39;;;;;;;6.17;4.93;;;-1.00;42.20;;;;;;4995270;28;20206;-68
2024/01/27 07:48:05;;;;;;;8.50;5.10;;;-0.90;42.30;;;;;;4995462;28;20177;-68
2024/01/27 07:50:31;;;;;;;13.50;4.90;;;-0.90;42.60;;;;;;4995565;28;20175;-67
2024/01/27 07:52:57;;;;;;;11.50;6.03;;;-0.80;42.60;;;;;;4993788;28;20935;-69
2024/01/27 07:55:23;;;;;;;12.05;6.68;;;-0.90;42.60;;;;;;4993829;28;20285;-68
2024/01/27 07:57:48;;;;;;;11.27;7.57;;;-0.80;43.00;;;;;;4995290;28;20199;-68
2024/01/27 08:00:14;;;;;;;10.67;6.77;;;-0.80;43.30;;;;;;4995412;28;20184;-69
2024/01/27 08:02:40;;;;;;;8.27;5.83;;;-0.70;43.40;;;;;;4993570;28;20903;-67
2024/01/27 08:05:06;;;;;;;9.17;6.37;;;-0.70;42.00;;;;;;4995190;28;20465;-68
2024/01/27 08:07:32;;;;;;;7.73;5.77;;;-0.70;43.50;;;;;;4993463;28;20628;-68
2024/01/27 08:09:57;;;;;;;8.60;6.17;;;-0.70;43.40;;;;;;4994940;28;20909;-68
2024/01/27 08:12:23;;;;;;;12.47;6.63;;;-0.60;43.50;;;;;;4995073;28;20618;-67
2024/01/27 08:14:49;;;;;;;9.20;5.83;;;-0.50;43.60;;;;;;4994736;28;20207;-68
2024/01/27 08:17:14;;;;;;;9.60;5.90;;;-0.50;44.30;;;;;;4989694;28;21001;-69
2024/01/27 08:19:40;;;;;;;9.70;5.87;;;-0.40;43.70;;;;;;4993003;28;20699;-68
2024/01/27 08:22:05;;;;;;;7.27;5.47;;;-0.30;43.70;;;;;;4994977;28;20231;-69
2024/01/27 08:24:31;;;;;;;9.80;7.83;;;-0.20;43.90;;;;;;4994224;28;20208;-67
2024/01/27 08:26:59;;;;;;;11.00;6.30;;;-0.20;43.30;;;;;;4994458;28;20735;-68
2024/01/27 08:29:24;;;;;;;8.25;5.55;;;-0.10;43.90;;;;;;4994337;28;20200;-68
2024/01/27 08:31:50;;;;;;;13.17;7.07;;;0.00;44.10;;;;;;4993241;28;20258;-71
2024/01/27 08:34:16;;;;;;;9.60;7.03;;;0.00;44.00;;;;;;4988204;28;20212;-67
2024/01/27 08:36:41;;;;;;;12.23;9.13;;;0.00;44.00;;;;;;4974863;28;20205;-68
2024/01/27 08:39:07;;;;;;;10.40;7.70;;;0.10;44.10;;;;;;4973625;28;20476;-68
2024/01/27 08:41:33;;;;;;;17.93;9.00;;;0.10;44.10;;;;;;4988298;28;20185;-68
2024/01/27 08:43:59;;;;;;;12.43;9.00;;;0.20;44.30;;;;;;4994051;28;20183;-68
2024/01/27 08:46:24;;;;;;;9.00;7.50;;;0.20;43.30;;;;;;4993803;28;20431;-68
2024/01/27 08:48:50;;;;;;;13.00;8.83;;;0.20;42.40;;;;;;4992919;28;20177;-67
2024/01/27 08:51:16;;;;;;;11.13;8.30;;;0.20;42.80;;;;;;4993955;28;20636;-67
2024/01/27 08:53:48;;;;;;;12.05;8.88;;;0.20;41.70;;;;;;4994198;28;20242;-68
2024/01/27 08:56:19;;;;;;;10.82;7.90;;;0.20;42.10;;;;;;4993196;28;20589;-68
2024/01/27 08:58:48;;;;;;;17.35;9.07;;;0.20;42.30;;;;;;4992666;28;20587;-69
2024/01/27 09:01:19;;;;;;;13.00;8.70;;;0.30;44.20;;;;;;4992088;28;20183;-67
2024/01/27 09:03:47;;;;;;;11.63;9.75;;;0.40;43.10;;;;;;4992129;28;20217;-68
2024/01/27 09:06:13;;;;;;;12.07;8.68;;;0.40;43.10;;;;;;4991592;28;20223;-67
2024/01/27 09:08:39;;;;;;;12.73;7.77;;;0.50;42.80;;;;;;4992478;28;20238;-68
2024/01/27 09:11:04;;;;;;;14.60;9.70;;;0.50;41.70;;;;;;4992198;28;20688;-68
2024/01/27 09:13:30;;;;;;;12.50;8.20;;;0.50;41.70;;;;;;4989060;28;20204;-66
2024/01/27 09:15:58;;;;;;;12.23;9.47;;;0.50;42.20;;;;;;4992628;28;20275;-68
2024/01/27 09:18:23;;;;;;;11.23;8.48;;;0.60;41.90;;;;;;4990123;28;20188;-67
2024/01/27 09:20:52;;;;;;;10.40;9.20;;;0.60;41.00;;;;;;4993723;28;20263;-67
2024/01/27 09:23:17;;;;;;;12.63;9.52;;;0.60;41.20;;;;;;4991889;28;20201;-69
2024/01/27 09:25:43;;;;;;;13.43;9.30;;;0.70;40.80;;;;;;4992922;28;20258;-68
2024/01/27 09:28:09;;;;;;;12.37;9.30;;;0.70;40.10;;;;;;4993229;28;20180;-68
2024/01/27 09:30:34;;;;;;;14.33;9.20;;;0.70;39.60;;;;;;4985022;28;20556;-67
2024/01/27 09:33:00;;;;;;;11.80;9.77;;;0.70;39.60;;;;;;4992828;28;20184;-68
2024/01/27 09:35:26;;;;;;;14.70;10.20;;;0.70;39.60;;;;;;4985186;28;20465;-68
2024/01/27 09:37:51;;;;;;;13.30;10.50;;;0.70;40.00;;;;;;4972363;28;20300;-68
2024/01/27 09:40:17;;;;;;;14.63;9.97;;;0.60;40.60;;;;;;4982286;28;20645;-67
2024/01/27 09:42:53;;;;;;;10.93;9.07;;;0.60;41.30;;;;;;4991961;28;20187;-69
2024/01/27 09:45:22;;;;;;;10.48;8.75;;;0.60;41.00;;;;;;4978252;28;20424;-67
2024/01/27 09:47:48;;;;;;;12.95;9.18;;;0.60;42.00;;;;;;4974069;28;20201;-68
2024/01/27 09:50:14;;;;;;;11.48;8.60;;;0.70;41.90;;;;;;4986466;28;20222;-68
2024/01/27 09:52:40;;;;;;;12.35;8.95;;;0.80;42.20;;;;;;4985573;28;20177;-68
2024/01/27 09:55:07;;;;;;;15.17;9.83;;;0.90;42.40;;;;;;4990151;28;20266;-68
2024/01/27 09:57:32;;;;;;;9.75;8.23;;;0.90;42.40;;;;;;4993261;28;20200;-69
2024/01/27 09:59:59;;;;;;;14.57;9.60;;;1.00;43.50;;;;;;4992713;28;20177;-69
2024/01/27 10:02:25;;;;;;;12.70;8.85;;;1.20;42.80;;;;;;4992870;28;20419;-68
2024/01/27 10:04:54;;;;;;;17.60;10.63;;;1.30;41.60;;;;;;4982250;28;20216;-68
2024/01/27 10:07:22;;;;;;;10.10;8.82;;;1.30;39.90;;;;;;4991669;28;20220;-68
2024/01/27 10:09:53;;;;;;;12.55;8.73;;;1.30;40.10;;;;;;4994164;28;20252;-68
2024/01/27 10:12:22;;;;;;;13.98;8.23;;;1.40;38.10;;;;;;4996688;28;20562;-68
2024/01/27 10:14:50;;;;;;;11.20;9.35;;;1.40;37.90;;;;;;4994364;28;20201;-68
2024/01/27 10:17:23;;;;;;;16.38;7.55;;;1.30;36.40;;;;;;4993181;28;20220;-69
2024/01/27 10:20:03;;;;;;;12.88;8.82;;;1.30;36.40;;;;;;4981520;28;20186;-71
2024/01/27 10:22:29;;;;;;;11.75;9.45;;;1.30;35.00;;;;;;4978031;28;20188;-67
2024/01/27 10:24:55;;;;;;;9.67;8.00;;;1.50;36.60;;;;;;4971541;28;20201;-68
2024/01/27 10:27:21;;;;;;;10.25;7.20;;;1.50;36.10;;;;;;4968296;28;20509;-68
2024/01/27 10:29:55;;;;;;;10.20;7.47;;;1.60;36.50;;;;;;4981839;28;20704;-68
2024/01/27 10:32:23;;;;;;;12.48;8.07;;;1.50;35.20;;;;;;4986193;28;20585;-68
2024/01/27 10:35:10;;;;;;;7.85;6.60;;;1.70;36.70;;;;;;4985666;28;20235;-68
2024/01/27 10:37:37;;;;;;;11.90;9.15;;;1.80;36.20;;;;;;4988406;28;20572;-68
2024/01/27 10:40:10;;;;;;;10.80;6.70;;;1.80;35.40;;;;;;4986521;28;20275;-68
2024/01/27 10:42:37;;;;;;;9.63;7.85;;;2.00;34.00;;;;;;4978889;28;20188;-69
2024/01/27 10:45:03;;;;;;;11.23;7.63;;;2.10;31.50;;;;;;4981875;28;20190;-68
2024/01/27 10:47:31;;;;;;;12.10;8.85;;;2.20;31.40;;;;;;4986245;28;20228;-69
2024/01/27 10:49:58;;;;;;;12.25;7.93;;;2.30;30.50;;;;;;4985792;28;20187;-68
2024/01/27 10:52:32;;;;;;;9.50;7.57;;;2.50;29.90;;;;;;4992409;28;20269;-69
2024/01/27 10:55:07;;;;;;;10.95;6.80;;;2.60;27.60;;;;;;4973947;28;20700;-67
2024/01/27 10:57:33;;;;;;;10.10;7.03;;;2.90;26.40;;;;;;4972671;28;20295;-67
2024/01/27 11:00:03;;;;;;;7.78;5.72;;;3.00;24.40;;;;;;4985367;28;20181;-68
2024/01/27 11:02:33;;;;;;;8.70;5.18;;;3.10;23.40;;;;;;4988025;28;20243;-67
2024/01/27 11:05:01;;;;;;;8.57;6.55;;;3.30;22.40;;;;;;4987435;28;20214;-68
2024/01/27 11:07:28;;;;;;;8.43;5.70;;;3.50;20.10;;;;;;4990155;28;20235;-69
2024/01/27 11:09:54;;;;;;;8.00;5.50;;;3.60;19.20;;;;;;4991284;28;20186;-68
2024/01/27 11:12:24;;;;;;;7.30;5.50;;;3.90;19.00;;;;;;4991229;28;20540;-68
2024/01/27 11:14:51;;;;;;;12.90;6.35;;;4.00;15.80;;;;;;4995328;28;20906;-68
2024/01/27 11:17:17;;;;;;;6.97;5.70;;;4.10;13.70;;;;;;4994224;28;20207;-68
2024/01/27 11:19:45;;;;;;;12.23;5.80;;;4.20;14.20;;;;;;4995071;28;20423;-69
2024/01/27 11:22:24;;;;;;;6.70;5.50;;;4.40;13.70;;;;;;4992313;28;20501;-68
2024/01/27 11:24:53;;;;;;;14.73;6.40;;;4.50;11.30;;;;;;4996160;28;20422;-68
2024/01/27 11:27:26;;;;;;;12.80;6.07;;;4.60;10.90;;;;;;4996422;28;20861;-68
2024/01/27 11:29:52;;;;;;;7.50;5.70;;;4.80;10.40;;;;;;4997644;28;20426;-69
2024/01/27 11:32:17;;;;;;;7.23;5.57;;;5.00;9.20;;;;;;4995930;28;20522;-71
2024/01/27 11:34:46;;;;;;;7.27;5.83;;;5.10;6.70;;;;;;4995931;28;20235;-68
2024/01/27 11:37:16;;;;;;;8.17;5.93;;;5.30;7.00;;;;;;4995590;28;20197;-69
2024/01/27 11:39:42;;;;;;;9.37;6.20;;;5.40;6.10;;;;;;4992457;28;20420;-69
2024/01/27 11:42:13;;;;;;;10.90;5.97;;;5.60;6.30;;;;;;4995698;28;20426;-69
2024/01/27 11:44:40;;;;;;;12.00;6.50;;;5.70;5.10;;;;;;4995202;28;20427;-70
2024/01/27 11:47:13;;;;;;;8.37;6.83;;;5.70;3.80;;;;;;4995379;28;20914;-70
2024/01/27 11:49:39;;;;;;;11.43;5.90;;;5.80;4.40;;;;;;4995144;28;20439;-70
2024/01/27 11:52:06;;;;;;;7.60;5.73;;;5.90;4.00;;;;;;4993827;28;20443;-71
2024/01/27 11:54:32;;;;;;;19.10;6.70;;;6.10;3.50;;;;;;4994457;28;20459;-70
2024/01/27 11:56:58;;;;;;;8.03;7.17;;;6.20;2.80;;;;;;4988704;28;20463;-71
2024/01/27 11:59:23;;;;;;;12.23;6.93;;;6.30;3.30;;;;;;4974213;28;20186;-72
2024/01/27 12:01:49;;;;;;;7.67;5.70;;;6.40;1.90;;;;;;4982274;28;20880;-71
2024/01/27 12:04:15;;;;;;;9.23;5.17;;;6.40;2.60;;;;;;4986725;28;20192;-68
2024/01/27 12:06:43;;;;;;;7.00;5.70;;;6.40;1.00;;;;;;4989051;28;20534;-69
2024/01/27 12:09:11;;;;;;;8.07;5.87;;;6.50;1.00;;;;;;4983684;28;20491;-69
2024/01/27 12:11:41;;;;;;;9.20;5.27;;;6.60;1.00;;;;;;4991082;28;20539;-71
2024/01/27 12:14:07;;;;;;;7.37;4.77;;;6.50;1.00;;;;;;4989569;28;20559;-70
2024/01/27 12:16:33;;;;;;;9.00;4.97;;;6.70;1.00;;;;;;4994698;28;20922;-70
2024/01/27 12:18:59;;;;;;;5.70;4.60;;;6.80;1.00;;;;;;4993762;28;20467;-70
2024/01/27 12:21:25;;;;;;;9.20;5.43;;;6.80;1.00;;;;;;4986190;28;20532;-69
2024/01/27 12:23:56;;;;;;;8.00;5.37;;;6.80;1.00;;;;;;4993744;28;20869;-70
2024/01/27 12:26:26;;;;;;;6.73;4.40;;;6.70;1.00;;;;;;4989045;28;20283;-71
2024/01/27 12:28:55;;;;;;;9.30;5.23;;;6.80;1.00;;;;;;4994555;28;20441;-72
2024/01/27 12:31:26;;;;;;;6.17;4.30;;;6.80;1.00;;;;;;4992878;28;20456;-70
2024/01/27 12:33:55;;;;;;;9.87;4.93;;;6.80;1.00;;;;;;4987191;28;20472;-68
2024/01/27 12:36:21;;;;;;;8.00;5.00;;;6.90;1.00;;;;;;4990326;28;20992;-71
2024/01/27 12:39:01;;;;;;;7.47;4.00;;;6.90;1.00;;;;;;4992428;28;20456;-70
2024/01/27 12:41:29;;;;;;;15.63;7.10;;;6.90;1.00;;;;;;4991701;28;20857;-70
2024/01/27 12:43:55;;;;;;;6.53;5.27;;;6.90;1.00;;;;;;4993396;28;20432;-70
2024/01/27 12:46:22;;;;;;;7.60;5.80;;;6.90;1.00;;;;;;4971555;28;20475;-71
2024/01/27 12:48:48;;;;;;;7.87;6.20;;;7.00;1.00;;;;;;4994652;28;20951;-71